createdAt,value
2019-01-24T00:01:58.493Z,100643.05
2019-01-24T00:05:59.589Z,100647.00
2019-01-24T00:10:03.527Z,100651.34
2019-01-24T00:14:05.640Z,100658.73
2019-01-24T00:18:06.687Z,100664.36
2019-01-24T00:22:08.000Z,100670.98
2019-01-24T00:26:09.412Z,100672.73
2019-01-24T00:30:11.795Z,100671.91
2019-01-24T00:34:12.764Z,100677.55
2019-01-24T00:38:13.982Z,100686.25
2019-01-24T00:42:15.451Z,100690.20
2019-01-24T00:46:16.914Z,100695.48
2019-01-24T00:50:18.053Z,100700.61
2019-01-24T00:54:19.203Z,100702.52
2019-01-24T00:58:20.901Z,100706.44
2019-01-24T01:02:22.079Z,100712.69
2019-01-24T01:06:23.063Z,100707.27
2019-01-24T01:10:24.095Z,100717.63
2019-01-24T01:14:25.612Z,100720.58
2019-01-24T01:18:27.177Z,100729.56
2019-01-24T01:22:28.846Z,100735.49
2019-01-24T01:26:30.142Z,100744.94
2019-01-24T01:30:32.092Z,100743.56
2019-01-24T01:34:36.468Z,100748.52
2019-01-24T01:38:37.609Z,100759.13
2019-01-24T01:42:38.671Z,100762.34
2019-01-24T01:46:40.155Z,100773.77
2019-01-24T01:50:42.259Z,100770.89
2019-01-24T01:54:43.193Z,100778.66
2019-01-24T01:58:44.787Z,100783.59
2019-01-24T02:02:46.335Z,100790.19
2019-01-24T02:06:47.653Z,100793.78
2019-01-24T02:10:49.421Z,100799.15
2019-01-24T02:14:51.845Z,100811.78
2019-01-24T02:18:53.290Z,100814.86
2019-01-24T02:22:54.378Z,100813.23
2019-01-24T02:26:56.037Z,100816.53
2019-01-24T02:30:57.823Z,100816.97
2019-01-24T02:34:59.025Z,100818.40
2019-01-24T02:39:00.240Z,100831.45
2019-01-24T02:43:02.962Z,100840.41
2019-01-24T02:47:04.243Z,100839.74
2019-01-24T02:51:05.355Z,100841.75
2019-01-24T02:55:07.211Z,100846.59
2019-01-24T02:59:08.340Z,100856.23
2019-01-24T03:03:09.516Z,100856.78
2019-01-24T03:07:10.922Z,100860.31
2019-01-24T03:11:12.505Z,100865.14
2019-01-24T03:15:15.482Z,100870.00
2019-01-24T03:19:16.762Z,100876.64
2019-01-24T03:23:18.691Z,100885.84
2019-01-24T03:27:20.521Z,100884.64
2019-01-24T03:31:22.669Z,100886.09
2019-01-24T03:35:26.274Z,100895.72
2019-01-24T03:39:27.750Z,100906.70
2019-01-24T03:43:29.044Z,100911.63
2019-01-24T03:47:30.610Z,100908.39
2019-01-24T03:51:32.178Z,100928.03
2019-01-24T03:55:33.459Z,100926.93
2019-01-24T03:59:34.807Z,100928.37
2019-01-24T04:03:36.400Z,100941.50
2019-01-24T04:07:39.161Z,100937.24
2019-01-24T04:11:42.405Z,100940.80
2019-01-24T04:15:43.693Z,100950.02
2019-01-24T04:19:45.789Z,100953.56
2019-01-24T04:23:46.961Z,100957.11
2019-01-24T04:27:47.939Z,100968.87
2019-01-24T04:31:49.310Z,100980.19
2019-01-24T04:35:50.867Z,100979.40
2019-01-24T04:39:52.919Z,100984.22
2019-01-24T04:43:54.520Z,100995.94
2019-01-24T04:47:58.093Z,100994.72
2019-01-24T04:51:59.953Z,101006.87
2019-01-24T04:56:01.338Z,101009.97
2019-01-24T05:00:03.228Z,101012.61
2019-01-24T05:04:04.874Z,101017.40
2019-01-24T05:08:06.388Z,101019.59
2019-01-24T05:12:08.902Z,101023.91
2019-01-24T05:16:10.196Z,101028.28
2019-01-24T05:20:15.422Z,101039.08
2019-01-24T05:24:16.921Z,101044.70
2019-01-24T05:28:18.595Z,101049.02
2019-01-24T05:32:25.686Z,101051.20
2019-01-24T05:36:27.033Z,101059.84
2019-01-24T05:40:28.412Z,101072.77
2019-01-24T05:44:29.652Z,101080.55
2019-01-24T05:48:30.847Z,101089.14
2019-01-24T05:52:32.289Z,101090.02
2019-01-24T05:56:34.058Z,101094.33
2019-01-24T06:00:41.179Z,101092.61
2019-01-24T06:04:42.489Z,101102.08
2019-01-24T06:08:44.763Z,101107.24
2019-01-24T06:12:46.118Z,101111.52
2019-01-24T06:16:47.383Z,101121.00
2019-01-24T06:20:49.302Z,101126.16
2019-01-24T06:24:50.889Z,101140.37
2019-01-24T06:28:52.275Z,101141.17
2019-01-24T06:32:53.935Z,101142.86
2019-01-24T06:36:55.982Z,101143.26
2019-01-24T06:40:57.200Z,101160.45
2019-01-24T06:44:58.446Z,101161.32
2019-01-24T06:48:59.654Z,101167.33
2019-01-24T06:53:00.762Z,101177.61
2019-01-24T06:57:01.816Z,101177.61
2019-01-24T07:01:02.968Z,101186.61
2019-01-24T07:05:04.181Z,101171.47
2019-01-24T07:09:08.038Z,101191.27
2019-01-24T07:13:10.305Z,101197.62
2019-01-24T07:17:13.449Z,101206.07
2019-01-24T07:21:14.849Z,101212.09
2019-01-24T07:25:18.775Z,101223.68
2019-01-24T07:29:20.062Z,101223.68
2019-01-24T07:33:21.473Z,101235.70
2019-01-24T07:37:22.827Z,101236.91
2019-01-24T07:41:24.694Z,101242.08
2019-01-24T07:45:32.193Z,101254.52
2019-01-24T07:49:33.876Z,101254.52
2019-01-24T07:53:35.347Z,101257.94
2019-01-24T07:57:36.524Z,101260.91
2019-01-24T08:01:37.871Z,101266.88
2019-01-24T08:05:39.283Z,101269.88
2019-01-24T08:09:40.998Z,101276.25
2019-01-24T08:13:42.179Z,101277.52
2019-01-24T08:17:43.472Z,101284.77
2019-01-24T08:21:46.450Z,101285.15
2019-01-24T08:25:47.702Z,101286.34
2019-01-24T08:29:49.055Z,101291.91
2019-01-24T08:33:50.896Z,101298.73
2019-01-24T08:37:52.095Z,101306.05
2019-01-24T08:41:53.864Z,101314.61
2019-01-24T08:45:55.003Z,101314.61
2019-01-24T08:49:57.053Z,101316.42
2019-01-24T08:53:58.254Z,101325.48
2019-01-24T08:57:59.479Z,101322.97
2019-01-24T09:02:00.766Z,101326.77
2019-01-24T09:06:02.221Z,101334.98
2019-01-24T09:10:03.481Z,101335.51
2019-01-24T09:14:04.652Z,101334.19
2019-01-24T09:18:07.690Z,101338.89
2019-01-24T09:22:08.974Z,101338.02
2019-01-24T09:26:11.558Z,101346.58
2019-01-24T09:30:16.034Z,101344.01
2019-01-24T09:34:17.190Z,101356.93
2019-01-24T09:38:18.410Z,101353.48
2019-01-24T09:42:19.577Z,101364.20
2019-01-24T09:46:20.662Z,101364.28
2019-01-24T09:50:23.552Z,101368.67
2019-01-24T09:54:24.788Z,101372.12
2019-01-24T09:58:26.038Z,101365.75
2019-01-24T10:02:27.254Z,101372.26
2019-01-24T10:06:28.585Z,101372.26
2019-01-24T10:10:29.802Z,101380.13
2019-01-24T10:14:31.051Z,101380.13
2019-01-24T10:18:32.366Z,101382.38
2019-01-24T10:22:33.793Z,101382.38
2019-01-24T10:26:35.087Z,101380.80
2019-01-24T10:30:42.376Z,101373.54
2019-01-24T10:34:39.445Z,101380.98
2019-01-24T10:38:40.584Z,101384.45
2019-01-24T10:42:41.912Z,101389.61
2019-01-24T10:46:43.161Z,101389.61
2019-01-24T10:50:44.604Z,101399.13
2019-01-24T10:54:45.814Z,101395.65
2019-01-24T10:58:47.010Z,101396.52
2019-01-24T11:02:48.334Z,101395.98
2019-01-24T11:06:50.090Z,101395.98
2019-01-24T11:10:51.675Z,101392.14
2019-01-24T11:14:53.081Z,101396.94
2019-01-24T11:18:54.278Z,101399.37
2019-01-24T11:22:55.534Z,101399.63
2019-01-24T11:26:56.848Z,101403.86
2019-01-24T11:30:59.219Z,101403.86
2019-01-24T11:35:01.725Z,101416.66
2019-01-24T11:39:03.731Z,101416.66
2019-01-24T11:43:05.220Z,101418.33
2019-01-24T11:47:06.669Z,101428.75
2019-01-24T11:51:07.827Z,101439.09
2019-01-24T11:55:09.974Z,101435.27
2019-01-24T11:59:11.716Z,101440.07
2019-01-24T12:03:13.841Z,101431.08
2019-01-24T12:07:15.035Z,101431.08
2019-01-24T12:11:16.096Z,101428.81
2019-01-24T12:15:19.080Z,101435.23
2019-01-24T12:19:20.389Z,101431.36
2019-01-24T12:23:21.650Z,101433.94
2019-01-24T12:27:23.014Z,101428.26
2019-01-24T12:31:24.264Z,101428.26
2019-01-24T12:35:25.302Z,101445.44
2019-01-24T12:39:26.457Z,101446.23
2019-01-24T12:43:27.524Z,101441.98
2019-01-24T12:47:28.533Z,101441.98
2019-01-24T12:51:29.571Z,101450.94
2019-01-24T12:55:30.531Z,101450.94
2019-01-24T12:59:31.598Z,101442.33
2019-01-24T13:03:32.568Z,101441.00
2019-01-24T13:07:33.597Z,101435.89
2019-01-24T13:11:34.594Z,101441.38
2019-01-24T13:15:35.759Z,101433.95
2019-01-24T13:19:36.760Z,101431.71
2019-01-24T13:23:37.811Z,101432.84
2019-01-24T13:27:38.807Z,101430.22
2019-01-24T13:31:39.874Z,101449.84
2019-01-24T13:35:40.856Z,101450.76
2019-01-24T13:39:42.980Z,101457.15
2019-01-24T13:43:44.253Z,101447.72
2019-01-24T13:47:45.358Z,101455.31
2019-01-24T13:51:46.377Z,101453.52
2019-01-24T13:55:47.392Z,101454.73
2019-01-24T13:59:48.410Z,101446.16
2019-01-24T14:04:05.622Z,101454.22
2019-01-24T14:08:06.669Z,101459.92
2019-01-24T14:12:07.751Z,101455.59
2019-01-24T14:16:08.813Z,101459.83
2019-01-24T14:20:12.728Z,101460.29
2019-01-24T14:24:13.673Z,101460.66
2019-01-24T14:28:14.740Z,101458.48
2019-01-24T14:32:15.749Z,101460.64
2019-01-24T14:36:16.809Z,101464.88
2019-01-24T14:40:18.847Z,101461.84
2019-01-24T14:44:19.853Z,101466.98
2019-01-24T14:48:21.320Z,101467.81
2019-01-24T14:52:22.727Z,101469.10
2019-01-24T14:56:23.700Z,101463.12
2019-01-24T15:00:27.733Z,101474.75
2019-01-24T15:04:28.838Z,101478.16
2019-01-24T15:08:30.168Z,101478.58
2019-01-24T15:12:31.443Z,101484.97
2019-01-24T15:16:32.747Z,101489.24
2019-01-24T15:20:34.003Z,101486.77
2019-01-24T15:24:35.348Z,101483.30
2019-01-24T15:28:36.470Z,101495.27
2019-01-24T15:32:37.829Z,101497.42
2019-01-24T15:36:40.749Z,101499.98
2019-01-24T15:40:42.091Z,101498.71
2019-01-24T15:44:43.367Z,101499.55
2019-01-24T15:48:44.745Z,101494.75
2019-01-24T15:52:46.490Z,101490.43
2019-01-24T15:56:47.907Z,101495.63
2019-01-24T16:00:48.884Z,101497.74
2019-01-24T16:04:49.983Z,101491.66
2019-01-24T16:08:50.977Z,101496.34
2019-01-24T16:12:52.098Z,101506.19
2019-01-24T16:16:53.121Z,101535.38
2019-01-24T16:20:54.230Z,101531.62
2019-01-24T16:24:55.256Z,101511.18
2019-01-24T16:28:56.330Z,101517.56
2019-01-24T16:32:57.414Z,101522.81
2019-01-24T16:36:58.509Z,101523.34
2019-01-24T16:40:59.466Z,101520.35
2019-01-24T16:45:00.546Z,101523.86
2019-01-24T16:49:01.541Z,101526.38
2019-01-24T16:53:02.555Z,101523.39
2019-01-24T16:57:04.833Z,101525.97
2019-01-24T17:01:21.326Z,101525.15
2019-01-24T17:05:22.450Z,101505.82
2019-01-24T17:09:26.880Z,101517.51
2019-01-24T17:13:28.300Z,101517.14
2019-01-24T17:17:30.411Z,101512.87
2019-01-24T17:21:31.922Z,101519.22
2019-01-24T17:25:33.823Z,101519.67
2019-01-24T17:29:35.790Z,101526.98
2019-01-24T17:33:37.780Z,101529.20
2019-01-24T17:37:40.316Z,101529.25
2019-01-24T17:41:41.380Z,101526.72
2019-01-24T17:45:42.414Z,101535.73
2019-01-24T17:49:43.955Z,101538.69
2019-01-24T17:53:45.309Z,101539.23
2019-01-24T17:57:46.405Z,101535.42
2019-01-24T18:01:48.098Z,101526.02
2019-01-24T18:05:49.211Z,101522.95
2019-01-24T18:09:50.225Z,101513.47
2019-01-24T18:13:51.330Z,101512.18
2019-01-24T18:17:52.345Z,101518.20
2019-01-24T18:21:53.471Z,101522.03
2019-01-24T18:25:54.498Z,101514.80
2019-01-24T18:29:55.612Z,101521.37
2019-01-24T18:33:56.673Z,101521.92
2019-01-24T18:37:58.370Z,101524.59
2019-01-24T18:42:12.793Z,101524.22
2019-01-24T18:46:14.278Z,101520.69
2019-01-24T18:50:18.722Z,101525.00
2019-01-24T18:54:20.885Z,101524.96
2019-01-24T18:58:22.450Z,101524.09
2019-01-24T19:02:23.777Z,101519.34
2019-01-24T19:06:24.993Z,101516.31
2019-01-24T19:10:26.338Z,101513.70
2019-01-24T19:14:27.938Z,101518.89
2019-01-24T19:18:29.303Z,101515.53
2019-01-24T19:22:32.841Z,101515.53
2019-01-24T19:26:34.199Z,101524.63
2019-01-24T19:30:35.287Z,101535.45
2019-01-24T19:34:36.981Z,101540.66
2019-01-24T19:38:38.021Z,101541.15
2019-01-24T19:42:39.734Z,101541.66
2019-01-24T19:46:41.367Z,101517.08
2019-01-24T19:50:42.442Z,101519.73
2019-01-24T19:54:44.752Z,101519.73
2019-01-24T19:58:46.386Z,101530.09
2019-01-24T20:02:47.461Z,101543.02
2019-01-24T20:06:49.293Z,101537.07
2019-01-24T20:10:50.484Z,101528.42
2019-01-24T20:14:51.486Z,101522.97
2019-01-24T20:18:52.485Z,101522.97
2019-01-24T20:22:54.105Z,101526.49
2019-01-24T20:26:55.130Z,101526.49
2019-01-24T20:30:56.354Z,101524.83
2019-01-24T20:34:57.358Z,101539.92
2019-01-24T20:38:58.479Z,101535.30
2019-01-24T20:43:00.015Z,101533.13
2019-01-24T20:47:01.114Z,101531.84
2019-01-24T20:51:02.318Z,101526.64
2019-01-24T20:55:04.429Z,101524.94
2019-01-24T20:59:06.632Z,101526.72
2019-01-24T21:03:08.972Z,101540.91
2019-01-24T21:07:10.559Z,101540.11
2019-01-24T21:11:12.679Z,101540.11
2019-01-24T21:15:15.169Z,101544.02
2019-01-24T21:19:16.211Z,101551.41
2019-01-24T21:23:17.398Z,101557.06
2019-01-24T21:27:18.919Z,101544.78
2019-01-24T21:31:19.899Z,101544.81
2019-01-24T21:35:21.763Z,101544.81
2019-01-24T21:39:22.945Z,101563.50
2019-01-24T21:43:24.675Z,101563.50
2019-01-24T21:47:26.202Z,101565.24
2019-01-24T21:51:27.525Z,101545.53
2019-01-24T21:55:29.393Z,101545.53
2019-01-24T21:59:30.701Z,101538.12
2019-01-24T22:03:31.886Z,101534.66
2019-01-24T22:07:33.842Z,101549.74
2019-01-24T22:11:35.019Z,101538.54
2019-01-24T22:15:36.052Z,101538.54
2019-01-24T22:19:37.459Z,101541.57
2019-01-24T22:23:38.495Z,101539.83
2019-01-24T22:27:39.443Z,101536.77
2019-01-24T22:31:40.458Z,101543.70
2019-01-24T22:35:41.439Z,101530.31
2019-01-24T22:39:43.060Z,101550.73
2019-01-24T22:43:44.592Z,101549.05
2019-01-24T22:47:45.778Z,101546.46
2019-01-24T22:51:46.771Z,101548.23
2019-01-24T22:55:48.328Z,101542.27
2019-01-24T22:59:49.287Z,101538.45
2019-01-24T23:04:04.702Z,101546.20
2019-01-24T23:08:07.422Z,101536.75
2019-01-24T23:12:09.794Z,101538.99
2019-01-24T23:16:11.203Z,101533.42
2019-01-24T23:20:12.266Z,101527.38
2019-01-24T23:24:14.175Z,101531.70
2019-01-24T23:28:15.441Z,101511.89
2019-01-24T23:32:17.113Z,101517.50
2019-01-24T23:36:18.810Z,101521.04
2019-01-24T23:40:21.256Z,101509.92
2019-01-24T23:44:22.806Z,101511.70
2019-01-24T23:48:24.199Z,101506.15
2019-01-24T23:52:25.275Z,101511.34
2019-01-24T23:56:26.785Z,101514.01
